createdAt,value
2022-12-14T00:04:26.418Z,60.65
2022-12-14T00:09:18.165Z,60.31
2022-12-14T00:14:09.701Z,60.03
2022-12-14T00:19:02.369Z,59.68
2022-12-14T00:23:54.977Z,60.03
2022-12-14T00:28:47.911Z,59.55
2022-12-14T00:33:39.953Z,59.65
2022-12-14T00:38:31.566Z,59.67
2022-12-14T00:43:23.805Z,59.35
2022-12-14T00:48:17.421Z,59.29
2022-12-14T00:53:09.694Z,59.42
2022-12-14T00:58:01.478Z,59.29
2022-12-14T01:02:53.005Z,59.32
2022-12-14T01:07:44.801Z,60.17
2022-12-14T01:12:40.540Z,59.91
2022-12-14T01:17:32.302Z,59.83
2022-12-14T01:22:24.012Z,59.62
2022-12-14T01:27:15.638Z,59.17
2022-12-14T01:32:07.237Z,59.87
2022-12-14T01:36:58.839Z,59.34
2022-12-14T01:41:54.180Z,60.14
2022-12-14T01:46:54.504Z,60.17
2022-12-14T01:51:53.485Z,59.07
2022-12-14T01:56:46.720Z,59.61
2022-12-14T02:01:38.757Z,59.90
2022-12-14T02:06:35.769Z,59.50
2022-12-14T02:11:59.032Z,60.54
2022-12-14T02:16:53.517Z,60.89
2022-12-14T02:21:47.986Z,61.03
2022-12-14T02:27:02.744Z,60.98
2022-12-14T02:32:51.755Z,61.28
2022-12-14T02:37:49.030Z,60.33
2022-12-14T02:43:13.967Z,60.64
2022-12-14T02:48:26.117Z,60.65
2022-12-14T02:53:47.124Z,60.45
2022-12-14T02:58:41.218Z,60.71
2022-12-14T03:03:32.850Z,60.28
2022-12-14T03:08:27.634Z,60.23
2022-12-14T03:13:25.370Z,59.38
2022-12-14T03:18:19.670Z,60.09
2022-12-14T03:23:15.980Z,59.49
2022-12-14T03:28:13.773Z,58.68
2022-12-14T03:33:11.617Z,58.79
2022-12-14T03:38:17.973Z,58.79
2022-12-14T03:43:09.512Z,59.66
2022-12-14T03:48:10.262Z,59.01
2022-12-14T03:53:09.772Z,58.72
2022-12-14T03:58:30.542Z,58.62
2022-12-14T04:03:25.045Z,59.04
2022-12-14T04:08:48.730Z,58.68
2022-12-14T04:14:04.722Z,58.57
2022-12-14T04:19:00.688Z,58.97
2022-12-14T04:24:19.281Z,59.01
2022-12-14T04:29:35.327Z,59.29
2022-12-14T04:34:29.989Z,59.47
2022-12-14T04:39:31.264Z,58.65
2022-12-14T04:44:32.325Z,58.87
2022-12-14T04:49:32.255Z,59.38
2022-12-14T04:54:31.965Z,59.14
2022-12-14T04:59:24.609Z,59.07
2022-12-14T05:04:37.621Z,58.88
2022-12-14T05:09:39.729Z,59.25
2022-12-14T05:14:40.356Z,59.26
2022-12-14T05:19:32.410Z,59.36
2022-12-14T05:24:24.017Z,59.41
2022-12-14T05:29:16.904Z,59.64
2022-12-14T05:34:08.511Z,59.12
2022-12-14T05:39:00.280Z,60.09
2022-12-14T05:43:52.342Z,59.75
2022-12-14T05:48:48.986Z,59.44
2022-12-14T05:53:41.280Z,59.86
2022-12-14T05:58:34.862Z,59.24
2022-12-14T06:03:26.855Z,59.18
2022-12-14T06:08:18.645Z,59.09
2022-12-14T06:13:10.329Z,58.91
2022-12-14T06:18:01.880Z,59.38
2022-12-14T06:22:56.531Z,59.16
2022-12-14T06:27:52.384Z,59.47
2022-12-14T06:32:43.917Z,59.71
2022-12-14T06:37:35.444Z,59.23
2022-12-14T06:42:27.350Z,59.68
2022-12-14T06:47:19.182Z,59.39
2022-12-14T06:52:10.774Z,58.65
2022-12-14T06:57:05.499Z,58.93
2022-12-14T07:01:57.081Z,58.82
2022-12-14T07:06:49.148Z,58.54
2022-12-14T07:11:41.168Z,58.68
2022-12-14T07:16:34.855Z,58.69
2022-12-14T07:21:27.533Z,58.87
2022-12-14T07:26:22.037Z,58.81
2022-12-14T07:31:16.917Z,58.59
2022-12-14T07:36:11.489Z,58.29
2022-12-14T07:41:05.680Z,58.65
2022-12-14T07:46:05.762Z,58.00
2022-12-14T07:51:11.997Z,57.85
2022-12-14T07:56:27.384Z,57.98
2022-12-14T08:01:20.258Z,57.57
2022-12-14T08:06:13.644Z,58.79
2022-12-14T08:11:06.137Z,58.55
2022-12-14T08:16:05.803Z,57.82
2022-12-14T08:20:57.450Z,58.76
2022-12-14T08:25:54.384Z,57.34
2022-12-14T08:30:45.999Z,57.39
2022-12-14T08:35:37.589Z,58.03
2022-12-14T08:40:29.871Z,57.73
2022-12-14T08:45:21.752Z,57.65
2022-12-14T08:50:13.503Z,57.41
2022-12-14T08:55:07.000Z,57.73
2022-12-14T09:00:01.704Z,58.08
2022-12-14T09:04:54.713Z,57.67
2022-12-14T09:09:46.264Z,57.70
2022-12-14T09:14:37.833Z,56.98
2022-12-14T09:19:29.433Z,56.69
2022-12-14T09:24:21.397Z,56.97
2022-12-14T09:29:17.650Z,56.29
2022-12-14T09:34:10.513Z,57.54
2022-12-14T09:39:02.745Z,57.43
2022-12-14T09:44:32.674Z,58.40
2022-12-14T09:49:31.978Z,57.79
2022-12-14T09:54:27.534Z,57.31
2022-12-14T09:59:20.845Z,58.19
2022-12-14T10:04:50.900Z,58.63
2022-12-14T10:10:08.475Z,59.37
2022-12-14T10:15:27.294Z,61.08
2022-12-14T10:20:25.464Z,60.92
2022-12-14T10:25:24.298Z,61.42
2022-12-14T10:30:18.597Z,61.57
2022-12-14T10:35:16.999Z,62.15
2022-12-14T10:40:33.156Z,63.23
2022-12-14T10:45:41.572Z,63.99
2022-12-14T10:50:53.575Z,64.58
2022-12-14T10:55:46.859Z,65.56
2022-12-14T11:00:38.627Z,66.90
2022-12-14T11:05:41.240Z,66.02
2022-12-14T11:10:35.869Z,67.26
2022-12-14T11:15:43.077Z,66.91
2022-12-14T11:20:34.815Z,67.90
2022-12-14T11:25:38.507Z,68.22
2022-12-14T11:30:30.475Z,68.78
2022-12-14T11:35:22.247Z,68.71
2022-12-14T11:40:25.627Z,69.09
2022-12-14T11:45:26.465Z,68.80
2022-12-14T11:50:25.155Z,68.25
2022-12-14T11:55:26.697Z,68.42
2022-12-14T12:00:24.394Z,68.28
2022-12-14T12:05:19.654Z,68.38
2022-12-14T12:10:18.388Z,68.70
2022-12-14T12:15:17.262Z,68.41
2022-12-14T12:20:24.523Z,68.35
2022-12-14T12:25:30.850Z,69.20
2022-12-14T12:30:30.996Z,69.53
2022-12-14T12:35:32.711Z,70.14
2022-12-14T12:40:34.442Z,68.78
2022-12-14T12:45:35.958Z,68.87
2022-12-14T12:50:33.971Z,67.88
2022-12-14T12:55:28.090Z,66.70
2022-12-14T13:00:22.528Z,66.59
2022-12-14T13:05:46.325Z,66.53
2022-12-14T13:10:35.907Z,66.27
2022-12-14T13:15:57.141Z,65.86
2022-12-14T13:20:49.747Z,64.73
2022-12-14T13:26:28.234Z,65.42
2022-12-14T13:32:02.655Z,64.04
2022-12-14T13:37:12.322Z,63.46
2022-12-14T13:42:40.563Z,63.10
2022-12-14T13:47:44.848Z,63.97
2022-12-14T13:52:44.149Z,64.93
2022-12-14T13:57:35.847Z,64.34
2022-12-14T14:02:27.531Z,65.46
2022-12-14T14:07:25.348Z,65.09
2022-12-14T14:12:38.031Z,65.41
2022-12-14T14:17:40.446Z,65.64
2022-12-14T14:22:32.133Z,65.05
2022-12-14T14:27:27.408Z,64.34
2022-12-14T14:32:31.203Z,64.96
2022-12-14T14:37:31.569Z,64.33
2022-12-14T14:42:26.866Z,64.85
2022-12-14T14:47:37.479Z,65.39
2022-12-14T14:52:41.583Z,64.97
2022-12-14T14:57:53.422Z,63.92
2022-12-14T15:02:45.875Z,64.32
2022-12-14T15:07:37.703Z,64.73
2022-12-14T15:12:42.942Z,65.40
2022-12-14T15:17:34.545Z,65.57
2022-12-14T15:22:28.433Z,66.16
2022-12-14T15:27:34.803Z,66.15
2022-12-14T15:32:26.542Z,66.94
2022-12-14T15:37:41.912Z,68.02
2022-12-14T15:42:33.676Z,69.02
2022-12-14T15:47:30.485Z,70.18
2022-12-14T15:52:29.796Z,73.17
2022-12-14T15:57:21.444Z,74.99
2022-12-14T16:02:30.599Z,75.34
2022-12-14T16:07:36.540Z,75.64
2022-12-14T16:12:32.619Z,76.47
2022-12-14T16:17:33.989Z,77.15
2022-12-14T16:22:28.145Z,77.80
2022-12-14T16:27:20.178Z,77.84
2022-12-14T16:32:16.328Z,78.30
2022-12-14T16:37:32.269Z,78.82
2022-12-14T16:42:27.140Z,78.81
2022-12-14T16:47:48.565Z,78.97
2022-12-14T16:52:40.161Z,80.42
2022-12-14T16:57:31.727Z,79.76
2022-12-14T17:02:32.915Z,80.17
2022-12-14T17:07:27.640Z,80.90
2022-12-14T17:12:19.258Z,80.69
2022-12-14T17:17:17.100Z,80.86
2022-12-14T17:22:29.452Z,81.13
2022-12-14T17:27:22.226Z,81.27
2022-12-14T17:32:16.782Z,81.28
2022-12-14T17:37:16.686Z,81.29
2022-12-14T17:42:12.466Z,81.89
2022-12-14T17:47:04.062Z,81.67
2022-12-14T17:51:55.688Z,81.96
2022-12-14T17:56:47.272Z,81.87
2022-12-14T18:01:40.855Z,82.44
2022-12-14T18:06:32.510Z,82.23
2022-12-14T18:11:26.850Z,81.88
2022-12-14T18:16:21.151Z,81.98
2022-12-14T18:21:19.368Z,82.31
2022-12-14T18:26:12.737Z,82.15
2022-12-14T18:31:07.332Z,82.33
2022-12-14T18:35:59.091Z,82.89
2022-12-14T18:40:53.102Z,83.06
2022-12-14T18:45:44.822Z,83.10
2022-12-14T18:50:42.395Z,82.59
2022-12-14T18:55:34.796Z,82.85
2022-12-14T19:00:29.666Z,83.17
2022-12-14T19:05:26.098Z,83.16
2022-12-14T19:10:23.808Z,83.04
2022-12-14T19:15:18.129Z,83.93
2022-12-14T19:20:12.610Z,84.06
2022-12-14T19:25:04.570Z,83.74
2022-12-14T19:29:56.428Z,83.11
2022-12-14T19:34:47.985Z,83.90
2022-12-14T19:39:39.569Z,83.62
2022-12-14T19:44:34.478Z,83.60
2022-12-14T19:49:26.235Z,83.03
2022-12-14T19:54:18.185Z,83.32
2022-12-14T19:59:10.020Z,83.47
2022-12-14T20:04:01.644Z,83.49
2022-12-14T20:09:00.842Z,83.49
2022-12-14T20:13:58.139Z,83.64
2022-12-14T20:18:52.335Z,83.45
2022-12-14T20:23:44.808Z,83.17
2022-12-14T20:28:37.013Z,83.69
2022-12-14T20:33:30.863Z,83.43
2022-12-14T20:38:22.695Z,83.15
2022-12-14T20:43:14.432Z,83.12
2022-12-14T20:48:09.748Z,83.50
2022-12-14T20:53:01.854Z,83.03
2022-12-14T20:57:54.003Z,83.29
2022-12-14T21:02:45.776Z,82.75
2022-12-14T21:07:38.540Z,82.68
2022-12-14T21:12:33.177Z,82.87
2022-12-14T21:17:26.856Z,82.34
2022-12-14T21:22:21.515Z,82.38
2022-12-14T21:27:22.521Z,82.00
2022-12-14T21:32:14.876Z,81.58
2022-12-14T21:37:06.871Z,81.79
2022-12-14T21:42:12.581Z,81.26
2022-12-14T21:47:06.992Z,81.12
2022-12-14T21:51:58.945Z,81.85
2022-12-14T21:57:09.661Z,82.17
2022-12-14T22:02:04.548Z,82.15
2022-12-14T22:06:56.607Z,81.67
2022-12-14T22:11:49.016Z,81.14
2022-12-14T22:16:41.311Z,80.86
2022-12-14T22:21:33.198Z,80.50
2022-12-14T22:26:24.806Z,80.16
2022-12-14T22:31:18.677Z,80.07
2022-12-14T22:36:10.270Z,79.36
2022-12-14T22:41:03.368Z,79.23
2022-12-14T22:45:55.051Z,79.39
2022-12-14T22:50:46.683Z,79.50
2022-12-14T22:55:39.073Z,79.47
2022-12-14T23:00:30.572Z,80.27
2022-12-14T23:05:22.299Z,80.13
2022-12-14T23:10:32.620Z,80.20
2022-12-14T23:15:42.853Z,80.07
2022-12-14T23:20:53.314Z,79.84
2022-12-14T23:26:03.674Z,79.53
2022-12-14T23:31:17.273Z,79.84
2022-12-14T23:36:27.331Z,79.43
2022-12-14T23:41:37.477Z,79.55
2022-12-14T23:46:47.736Z,79.70
2022-12-14T23:51:58.096Z,80.17
2022-12-14T23:57:08.348Z,79.83
